Time;durP1;ratioP1;P1;durP2;ratioP2;P2;SDS_P1;SDS_P2;PMS_P1;PMS_P2;Temp;Humidity;BMP_temperature;BMP_pressure;BME280_temperature;BME280_humidity;BME280_pressure;Samples;Min_cycle;Max_cycle;Signal;HPM_P1;HPM_P2
2024/02/21 00:00:08;;;;;;;22.48;10.27;;;;;;;;;;4957068;28;20035;-79
2024/02/21 00:02:33;;;;;;;16.85;9.02;;;;;;;;;;4973368;28;20494;-80
2024/02/21 00:04:59;;;;;;;21.05;9.13;;;;;;;;;;4975194;28;20023;-79
2024/02/21 00:07:24;;;;;;;17.13;9.13;;;;;;;;;;4973518;28;20113;-80
2024/02/21 00:09:50;;;;;;;19.33;8.93;;;;;;;;;;4948252;28;20150;-80
2024/02/21 00:12:15;;;;;;;24.40;9.63;;;;;;;;;;4966685;28;20062;-80
2024/02/21 00:14:40;;;;;;;20.63;9.45;;;;;;;;;;4961447;28;20149;-79
2024/02/21 00:17:08;;;;;;;16.58;8.50;;;;;;;;;;4963007;28;20073;-79
2024/02/21 00:19:33;;;;;;;17.15;8.85;;;;;;;;;;4963323;28;20855;-80
2024/02/21 00:21:59;;;;;;;18.13;8.43;;;;;;;;;;4946979;28;20027;-80
2024/02/21 00:24:24;;;;;;;19.05;9.13;;;;;;;;;;4963971;28;20421;-80
2024/02/21 00:26:49;;;;;;;19.38;8.40;;;;;;;;;;4966248;28;20030;-80
2024/02/21 00:29:15;;;;;;;14.60;8.15;;;;;;;;;;4967018;28;20656;-80
2024/02/21 00:31:40;;;;;;;14.82;7.60;;;;;;;;;;4965276;28;20041;-80
2024/02/21 00:34:06;;;;;;;18.15;8.73;;;;;;;;;;4950846;28;20058;-81
2024/02/21 00:36:31;;;;;;;17.40;8.27;;;;;;;;;;4964071;28;20038;-81
2024/02/21 00:38:56;;;;;;;18.02;8.48;;;;;;;;;;4967283;28;20440;-80
2024/02/21 00:41:22;;;;;;;16.98;8.05;;;;;;;;;;4965635;28;20035;-81
2024/02/21 00:43:49;;;;;;;18.38;8.27;;;;;;;;;;4965866;28;20425;-81
2024/02/21 00:46:15;;;;;;;18.55;8.48;;;;;;;;;;4965672;28;20110;-80
2024/02/21 00:48:40;;;;;;;18.52;8.38;;;;;;;;;;4947734;28;20124;-81
2024/02/21 00:51:06;;;;;;;15.02;7.40;;;;;;;;;;4964474;28;20065;-80
2024/02/21 00:53:31;;;;;;;17.45;8.48;;;;;;;;;;4963075;28;20031;-80
2024/02/21 00:55:56;;;;;;;19.42;8.38;;;;;;;;;;4965998;28;20039;-80
2024/02/21 00:58:22;;;;;;;15.68;8.05;;;;;;;;;;4966245;28;20129;-81
2024/02/21 01:00:48;;;;;;;20.88;8.23;;;;;;;;;;4964597;28;20105;-80
2024/02/21 01:03:13;;;;;;;18.77;8.40;;;;;;;;;;4964000;28;20153;-80
2024/02/21 01:05:39;;;;;;;20.17;8.63;;;;;;;;;;4972425;28;20026;-81
2024/02/21 01:08:05;;;;;;;17.92;8.95;;;;;;;;;;4952628;28;20026;-81
2024/02/21 01:10:30;;;;;;;21.88;9.30;;;;;;;;;;4965558;28;20034;-81
2024/02/21 01:12:55;;;;;;;18.17;8.70;;;;;;;;;;4965557;28;20551;-81
2024/02/21 01:15:21;;;;;;;14.93;7.38;;;;;;;;;;4964981;28;20502;-80
2024/02/21 01:17:47;;;;;;;21.27;8.38;;;;;;;;;;4964373;28;20030;-81
2024/02/21 01:20:12;;;;;;;17.70;8.65;;;;;;;;;;4948588;28;20086;-81
2024/02/21 01:22:38;;;;;;;19.13;8.20;;;;;;;;;;4966194;28;20117;-80
2024/02/21 01:25:03;;;;;;;15.80;8.02;;;;;;;;;;4965992;28;20105;-81
2024/02/21 01:27:29;;;;;;;26.70;8.88;;;;;;;;;;4971803;28;20416;-81
2024/02/21 01:29:54;;;;;;;14.70;8.18;;;;;;;;;;4972551;28;20034;-80
2024/02/21 01:32:19;;;;;;;19.15;8.60;;;;;;;;;;4952841;28;20396;-80
2024/02/21 01:34:45;;;;;;;16.25;8.50;;;;;;;;;;4970815;28;20572;-81
2024/02/21 01:37:10;;;;;;;16.83;8.00;;;;;;;;;;4974344;28;20492;-81
2024/02/21 01:39:36;;;;;;;17.67;8.40;;;;;;;;;;4969978;28;20051;-81
2024/02/21 01:42:01;;;;;;;21.08;8.82;;;;;;;;;;4969689;28;20025;-81
2024/02/21 01:44:26;;;;;;;18.40;9.10;;;;;;;;;;4952953;28;20485;-81
2024/02/21 01:46:52;;;;;;;19.15;9.05;;;;;;;;;;4969946;28;20045;-80
2024/02/21 01:49:20;;;;;;;16.48;8.30;;;;;;;;;;4972068;28;20109;-81
2024/02/21 01:51:46;;;;;;;13.23;8.18;;;;;;;;;;4969275;28;20074;-80
2024/02/21 01:54:15;;;;;;;14.00;7.97;;;;;;;;;;4952731;28;20350;-81
2024/02/21 01:56:41;;;;;;;18.42;8.23;;;;;;;;;;4953464;28;20042;-81
2024/02/21 01:59:06;;;;;;;17.98;8.55;;;;;;;;;;4954856;28;20144;-80
2024/02/21 02:01:31;;;;;;;16.38;8.15;;;;;;;;;;4968814;28;20121;-81
2024/02/21 02:04:00;;;;;;;15.65;7.45;;;;;;;;;;4970705;28;20023;-80
2024/02/21 02:06:26;;;;;;;16.90;7.85;;;;;;;;;;4956423;28;20027;-81
2024/02/21 02:08:52;;;;;;;18.75;8.18;;;;;;;;;;4972302;28;20033;-81
2024/02/21 02:11:17;;;;;;;16.10;7.75;;;;;;;;;;4953695;28;20072;-80
2024/02/21 02:13:43;;;;;;;15.18;7.43;;;;;;;;;;4966880;28;20059;-81
2024/02/21 02:16:09;;;;;;;17.55;8.30;;;;;;;;;;4972889;28;20030;-80
2024/02/21 02:18:34;;;;;;;16.73;7.85;;;;;;;;;;4968833;28;20041;-80
2024/02/21 02:21:00;;;;;;;18.85;8.07;;;;;;;;;;4971896;28;20038;-80
2024/02/21 02:23:33;;;;;;;16.20;7.43;;;;;;;;;;4969220;28;20078;-80
2024/02/21 02:25:59;;;;;;;16.73;7.93;;;;;;;;;;4967257;28;20030;-80
2024/02/21 02:28:24;;;;;;;15.13;6.93;;;;;;;;;;4949933;28;20113;-81
2024/02/21 02:30:50;;;;;;;12.88;6.93;;;;;;;;;;4967157;28;20101;-80
2024/02/21 02:33:17;;;;;;;15.57;7.07;;;;;;;;;;4965235;28;20113;-80
2024/02/21 02:35:43;;;;;;;18.45;6.90;;;;;;;;;;4963521;28;20045;-80
2024/02/21 02:38:09;;;;;;;12.75;6.10;;;;;;;;;;4970507;28;20226;-80
2024/02/21 02:40:35;;;;;;;15.95;6.82;;;;;;;;;;4950749;28;20113;-81
2024/02/21 02:43:01;;;;;;;13.90;6.97;;;;;;;;;;4970756;28;20106;-81
2024/02/21 02:45:27;;;;;;;14.32;6.00;;;;;;;;;;4967631;28;20445;-80
2024/02/21 02:47:56;;;;;;;12.85;5.97;;;;;;;;;;4970662;28;20396;-80
2024/02/21 02:50:22;;;;;;;13.13;6.38;;;;;;;;;;4967341;28;20034;-80
2024/02/21 02:52:48;;;;;;;11.32;5.47;;;;;;;;;;4968045;28;20031;-80
2024/02/21 02:55:13;;;;;;;13.55;5.75;;;;;;;;;;4954034;28;20031;-81
2024/02/21 02:57:41;;;;;;;11.95;5.28;;;;;;;;;;4953634;28;20037;-80
2024/02/21 03:00:07;;;;;;;10.57;5.35;;;;;;;;;;4949206;28;20042;-80
2024/02/21 03:02:32;;;;;;;10.60;5.47;;;;;;;;;;4968998;28;20023;-81
2024/02/21 03:04:58;;;;;;;12.98;5.60;;;;;;;;;;4966805;28;20027;-80
2024/02/21 03:07:25;;;;;;;12.65;5.45;;;;;;;;;;4971414;28;20026;-80
2024/02/21 03:09:50;;;;;;;13.57;6.28;;;;;;;;;;4947693;28;20027;-80
2024/02/21 03:12:24;;;;;;;11.32;5.05;;;;;;;;;;4949495;28;20034;-80
2024/02/21 03:14:49;;;;;;;11.68;5.50;;;;;;;;;;4966115;28;20170;-79
2024/02/21 03:17:15;;;;;;;13.35;5.20;;;;;;;;;;4951870;28;20121;-79
2024/02/21 03:19:40;;;;;;;12.55;5.38;;;;;;;;;;4976247;28;20022;-79
2024/02/21 03:22:06;;;;;;;12.65;5.20;;;;;;;;;;4960967;28;20019;-79
2024/02/21 03:24:31;;;;;;;14.15;5.05;;;;;;;;;;4977113;28;20042;-79
2024/02/21 03:26:56;;;;;;;14.13;5.43;;;;;;;;;;4976606;28;20034;-80
2024/02/21 03:29:22;;;;;;;11.73;4.72;;;;;;;;;;4969927;28;20034;-80
2024/02/21 03:31:47;;;;;;;12.55;5.28;;;;;;;;;;4969186;28;20106;-80
2024/02/21 03:34:12;;;;;;;9.93;4.95;;;;;;;;;;4948200;28;20473;-79
2024/02/21 03:36:38;;;;;;;14.15;5.78;;;;;;;;;;4970617;28;20077;-79
2024/02/21 03:39:04;;;;;;;9.10;4.30;;;;;;;;;;4964807;28;20030;-80
2024/02/21 03:41:29;;;;;;;10.25;4.90;;;;;;;;;;4970243;28;20601;-79
2024/02/21 03:43:55;;;;;;;10.90;4.57;;;;;;;;;;4964198;28;20026;-79
2024/02/21 03:46:20;;;;;;;9.57;4.60;;;;;;;;;;4969431;28;20018;-80
2024/02/21 03:48:46;;;;;;;11.60;4.88;;;;;;;;;;4972118;28;20042;-79
2024/02/21 03:51:11;;;;;;;9.77;4.40;;;;;;;;;;4975460;28;20479;-79
2024/02/21 03:53:37;;;;;;;11.93;4.90;;;;;;;;;;4953908;28;20034;-79
2024/02/21 03:56:03;;;;;;;9.73;4.30;;;;;;;;;;4973905;28;20074;-79
2024/02/21 03:58:32;;;;;;;10.82;4.78;;;;;;;;;;4950920;28;20030;-80
2024/02/21 04:01:00;;;;;;;10.40;4.63;;;;;;;;;;4970863;28;20164;-80
2024/02/21 04:03:25;;;;;;;12.98;5.22;;;;;;;;;;4967519;28;20150;-80
2024/02/21 04:05:51;;;;;;;13.07;4.97;;;;;;;;;;4951358;28;20222;-80
2024/02/21 04:08:16;;;;;;;9.60;4.97;;;;;;;;;;4964441;28;20588;-80
2024/02/21 04:10:42;;;;;;;13.00;5.43;;;;;;;;;;4950800;28;20584;-80
2024/02/21 04:13:07;;;;;;;10.15;5.18;;;;;;;;;;4968616;28;20034;-80
2024/02/21 04:15:33;;;;;;;11.88;5.43;;;;;;;;;;4967892;28;20027;-80
2024/02/21 04:17:58;;;;;;;10.15;5.63;;;;;;;;;;4947355;28;20081;-80
2024/02/21 04:20:23;;;;;;;11.63;5.05;;;;;;;;;;4950728;28;20389;-80
2024/02/21 04:22:49;;;;;;;12.18;5.07;;;;;;;;;;4952357;28;20030;-81
2024/02/21 04:25:15;;;;;;;14.98;5.78;;;;;;;;;;4947686;28;20400;-80
2024/02/21 04:27:40;;;;;;;15.23;6.15;;;;;;;;;;4947440;28;20460;-80
2024/02/21 04:30:07;;;;;;;12.77;5.63;;;;;;;;;;4948100;28;20392;-81
2024/02/21 04:32:33;;;;;;;11.57;5.43;;;;;;;;;;4946454;28;20043;-81
2024/02/21 04:34:58;;;;;;;11.15;6.38;;;;;;;;;;4965226;28;20388;-81
2024/02/21 04:37:24;;;;;;;15.35;6.03;;;;;;;;;;4965798;28;20027;-81
2024/02/21 04:39:50;;;;;;;13.55;6.00;;;;;;;;;;4951200;28;20022;-81
2024/02/21 04:42:15;;;;;;;11.38;6.10;;;;;;;;;;4948720;28;20459;-80
2024/02/21 04:44:41;;;;;;;13.55;6.30;;;;;;;;;;4963988;28;20041;-81
2024/02/21 04:47:06;;;;;;;11.23;5.88;;;;;;;;;;4969417;28;20389;-80
2024/02/21 04:49:32;;;;;;;13.32;6.68;;;;;;;;;;4968717;28;20730;-81
2024/02/21 04:51:57;;;;;;;15.35;6.93;;;;;;;;;;4948215;28;20073;-81
2024/02/21 04:54:22;;;;;;;15.55;7.80;;;;;;;;;;4967869;28;20038;-81
2024/02/21 04:56:48;;;;;;;14.25;7.03;;;;;;;;;;4946778;28;20033;-80
2024/02/21 04:59:13;;;;;;;14.52;7.07;;;;;;;;;;4946932;28;20029;-80
2024/02/21 05:01:39;;;;;;;13.95;6.57;;;;;;;;;;4964065;28;20034;-81
2024/02/21 05:04:04;;;;;;;11.80;6.65;;;;;;;;;;4952012;28;20061;-81
2024/02/21 05:06:29;;;;;;;14.32;7.72;;;;;;;;;;4950675;28;20043;-80
2024/02/21 05:08:55;;;;;;;15.57;7.50;;;;;;;;;;4961622;28;20516;-80
2024/02/21 05:11:21;;;;;;;15.07;7.30;;;;;;;;;;4961845;28;20023;-81
2024/02/21 05:13:47;;;;;;;13.07;6.63;;;;;;;;;;4964929;28;20046;-80
2024/02/21 05:16:12;;;;;;;15.68;6.93;;;;;;;;;;4958564;28;20041;-80
2024/02/21 05:18:37;;;;;;;13.38;6.78;;;;;;;;;;4963467;28;20545;-80
2024/02/21 05:21:03;;;;;;;18.00;7.50;;;;;;;;;;4946251;28;20045;-81
2024/02/21 05:23:28;;;;;;;16.75;7.30;;;;;;;;;;4961802;28;20609;-81
2024/02/21 05:25:54;;;;;;;12.88;6.78;;;;;;;;;;4962576;28;20061;-80
2024/02/21 05:28:19;;;;;;;19.23;8.20;;;;;;;;;;4944065;28;20019;-81
2024/02/21 05:30:48;;;;;;;14.43;7.15;;;;;;;;;;4952810;28;20403;-81
2024/02/21 05:33:20;;;;;;;14.32;8.00;;;;;;;;;;4960214;28;20153;-80
2024/02/21 05:35:46;;;;;;;12.25;6.68;;;;;;;;;;4964793;28;20515;-80
2024/02/21 05:38:11;;;;;;;17.35;7.75;;;;;;;;;;4961724;28;20125;-80
2024/02/21 05:40:37;;;;;;;15.00;6.82;;;;;;;;;;4941832;28;20508;-81
2024/02/21 05:43:02;;;;;;;15.82;6.88;;;;;;;;;;4965045;28;20111;-80
2024/02/21 05:45:28;;;;;;;14.38;6.97;;;;;;;;;;4945349;28;20031;-81
2024/02/21 05:47:53;;;;;;;14.32;6.78;;;;;;;;;;4963457;28;20911;-80
2024/02/21 05:50:19;;;;;;;12.82;6.50;;;;;;;;;;4958689;28;20066;-80
2024/02/21 05:52:44;;;;;;;14.63;6.60;;;;;;;;;;4956468;28;20034;-81
2024/02/21 05:55:10;;;;;;;12.20;6.65;;;;;;;;;;4961616;28;20041;-80
2024/02/21 05:57:35;;;;;;;14.43;6.57;;;;;;;;;;4962754;28;21555;-80
2024/02/21 06:00:05;;;;;;;15.98;6.97;;;;;;;;;;4964594;28;20492;-80
2024/02/21 06:02:30;;;;;;;13.55;5.97;;;;;;;;;;4963445;28;20061;-80
2024/02/21 06:04:55;;;;;;;13.43;6.20;;;;;;;;;;4955901;28;20161;-80
2024/02/21 06:07:21;;;;;;;14.38;6.05;;;;;;;;;;4943422;28;20377;-80
2024/02/21 06:09:46;;;;;;;13.27;6.25;;;;;;;;;;4940230;28;20491;-80
2024/02/21 06:12:12;;;;;;;12.88;6.28;;;;;;;;;;4958026;28;20035;-81
2024/02/21 06:14:37;;;;;;;10.35;5.80;;;;;;;;;;4956286;28;20795;-81
2024/02/21 06:17:02;;;;;;;12.30;5.60;;;;;;;;;;4962651;28;20031;-80
2024/02/21 06:19:28;;;;;;;11.82;5.88;;;;;;;;;;4961033;28;20034;-80
2024/02/21 06:21:53;;;;;;;13.63;6.07;;;;;;;;;;4946795;28;20031;-80
2024/02/21 06:24:19;;;;;;;13.30;5.93;;;;;;;;;;4962966;28;20062;-81
2024/02/21 06:26:45;;;;;;;13.63;5.70;;;;;;;;;;4951447;28;21038;-81
2024/02/21 06:29:11;;;;;;;14.63;6.28;;;;;;;;;;4960597;28;20764;-80
2024/02/21 06:31:36;;;;;;;12.88;6.00;;;;;;;;;;4964764;28;20033;-81
2024/02/21 06:34:02;;;;;;;13.75;6.38;;;;;;;;;;4960717;28;20035;-80
2024/02/21 06:36:28;;;;;;;13.75;6.43;;;;;;;;;;4966386;28;20046;-80
2024/02/21 06:38:53;;;;;;;17.10;6.65;;;;;;;;;;4961216;28;20646;-80
2024/02/21 06:41:19;;;;;;;17.00;6.78;;;;;;;;;;4941888;28;20325;-80
2024/02/21 06:43:46;;;;;;;12.98;6.57;;;;;;;;;;4960913;28;20030;-79
2024/02/21 06:46:11;;;;;;;13.70;6.28;;;;;;;;;;4961832;28;20026;-79
2024/02/21 06:48:37;;;;;;;15.68;6.13;;;;;;;;;;4942416;28;20080;-79
2024/02/21 06:51:04;;;;;;;10.63;6.05;;;;;;;;;;4950739;28;20076;-80
2024/02/21 06:53:30;;;;;;;11.73;5.95;;;;;;;;;;4960583;28;20019;-80
2024/02/21 06:55:55;;;;;;;12.73;6.28;;;;;;;;;;4959419;28;20473;-80
2024/02/21 06:58:20;;;;;;;11.88;5.75;;;;;;;;;;4962838;28;20026;-80
2024/02/21 07:00:46;;;;;;;15.63;6.35;;;;;;;;;;4952456;28;20035;-79
2024/02/21 07:03:11;;;;;;;13.15;5.80;;;;;;;;;;4964920;28;20481;-79
2024/02/21 07:05:37;;;;;;;12.60;6.22;;;;;;;;;;4950699;28;20034;-79
2024/02/21 07:08:03;;;;;;;12.00;6.32;;;;;;;;;;4960864;28;20030;-80
2024/02/21 07:10:29;;;;;;;13.23;6.57;;;;;;;;;;4963214;28;20053;-80
2024/02/21 07:12:55;;;;;;;13.40;6.47;;;;;;;;;;4949680;28;20023;-80
2024/02/21 07:15:21;;;;;;;13.18;6.63;;;;;;;;;;4969551;28;20492;-80
2024/02/21 07:17:46;;;;;;;11.65;5.72;;;;;;;;;;4974542;28;20058;-80
2024/02/21 07:20:11;;;;;;;10.82;6.40;;;;;;;;;;4946154;28;20035;-80
2024/02/21 07:22:37;;;;;;;12.93;6.35;;;;;;;;;;4947119;28;20381;-80
2024/02/21 07:25:03;;;;;;;11.43;5.80;;;;;;;;;;4964783;28;20499;-80
2024/02/21 07:27:30;;;;;;;14.73;6.80;;;;;;;;;;4964404;28;20106;-78
2024/02/21 07:29:56;;;;;;;12.55;6.38;;;;;;;;;;4947607;28;20149;-78
2024/02/21 07:32:22;;;;;;;13.93;5.97;;;;;;;;;;4946533;28;20038;-79
2024/02/21 07:34:47;;;;;;;14.30;6.05;;;;;;;;;;4962593;28;20085;-79
2024/02/21 07:37:12;;;;;;;12.48;6.65;;;;;;;;;;4965627;28;20026;-79
2024/02/21 07:39:38;;;;;;;15.07;6.70;;;;;;;;;;4964988;28;20103;-79
2024/02/21 07:42:03;;;;;;;14.57;6.53;;;;;;;;;;4953404;28;20574;-78
2024/02/21 07:44:29;;;;;;;13.20;5.70;;;;;;;;;;4971855;28;20089;-78
2024/02/21 07:46:54;;;;;;;16.02;6.80;;;;;;;;;;4947836;28;20026;-78
2024/02/21 07:49:20;;;;;;;12.88;6.68;;;;;;;;;;4968676;28;20397;-78
2024/02/21 07:51:45;;;;;;;11.82;6.38;;;;;;;;;;4970873;28;20401;-81
2024/02/21 07:54:10;;;;;;;14.52;6.82;;;;;;;;;;4955996;28;20030;-81
2024/02/21 07:56:36;;;;;;;13.88;6.15;;;;;;;;;;4979577;28;20519;-82
2024/02/21 07:59:01;;;;;;;12.52;5.82;;;;;;;;;;4959438;28;20469;-81
2024/02/21 08:01:27;;;;;;;12.05;6.13;;;;;;;;;;4958613;28;20068;-82
2024/02/21 08:03:52;;;;;;;12.60;6.38;;;;;;;;;;4976823;28;20113;-81
2024/02/21 08:06:17;;;;;;;9.80;5.32;;;;;;;;;;4968026;28;20512;-82
2024/02/21 08:08:43;;;;;;;17.63;6.75;;;;;;;;;;4967523;28;20057;-81
2024/02/21 08:11:08;;;;;;;14.95;6.82;;;;;;;;;;4975423;28;20420;-82
2024/02/21 08:13:33;;;;;;;12.93;6.15;;;;;;;;;;4976099;28;20030;-82
2024/02/21 08:15:59;;;;;;;11.75;5.72;;;;;;;;;;4975062;28;20034;-82
2024/02/21 08:18:25;;;;;;;11.75;5.95;;;;;;;;;;4963981;28;20093;-81
2024/02/21 08:20:50;;;;;;;13.48;6.15;;;;;;;;;;4960372;28;20023;-82
2024/02/21 08:23:16;;;;;;;10.48;6.15;;;;;;;;;;4976433;28;20026;-82
2024/02/21 08:25:42;;;;;;;13.10;6.03;;;;;;;;;;4974020;28;20022;-81
2024/02/21 08:28:08;;;;;;;15.65;6.38;;;;;;;;;;4973561;28;20038;-82
2024/02/21 08:30:34;;;;;;;14.98;6.57;;;;;;;;;;4972894;28;20120;-82
2024/02/21 08:32:59;;;;;;;13.18;6.72;;;;;;;;;;4960611;28;20030;-81
2024/02/21 08:35:25;;;;;;;13.40;6.03;;;;;;;;;;4962549;28;20105;-82
2024/02/21 08:37:50;;;;;;;13.77;6.80;;;;;;;;;;4975032;28;20023;-81
2024/02/21 08:40:20;;;;;;;13.20;6.07;;;;;;;;;;4972572;28;20065;-82
2024/02/21 08:42:46;;;;;;;11.43;6.05;;;;;;;;;;4968788;28;20026;-82
2024/02/21 08:45:12;;;;;;;12.07;5.90;;;;;;;;;;4966864;28;20039;-81
2024/02/21 08:47:41;;;;;;;13.18;6.15;;;;;;;;;;4953487;28;20035;-82
2024/02/21 08:50:07;;;;;;;12.00;5.38;;;;;;;;;;4956108;28;20031;-82
2024/02/21 08:52:33;;;;;;;14.07;7.05;;;;;;;;;;4954481;28;20023;-82
2024/02/21 08:54:58;;;;;;;13.15;6.20;;;;;;;;;;4977838;28;20641;-81
2024/02/21 08:57:24;;;;;;;9.10;5.43;;;;;;;;;;4973425;28;20489;-83
2024/02/21 08:59:49;;;;;;;11.23;5.38;;;;;;;;;;4958385;28;20030;-82
2024/02/21 09:02:17;;;;;;;12.85;6.10;;;;;;;;;;4957978;28;20086;-82
2024/02/21 09:04:46;;;;;;;12.65;5.85;;;;;;;;;;4962249;28;20034;-82
2024/02/21 09:07:11;;;;;;;10.35;5.75;;;;;;;;;;4972222;28;20035;-82
2024/02/21 09:09:39;;;;;;;12.98;5.70;;;;;;;;;;4975928;28;20144;-82
2024/02/21 09:12:06;;;;;;;10.85;5.32;;;;;;;;;;4952208;28;20563;-82
2024/02/21 09:14:32;;;;;;;10.60;5.93;;;;;;;;;;4951093;28;20034;-81
2024/02/21 09:16:58;;;;;;;11.80;5.63;;;;;;;;;;4964643;28;20121;-82
2024/02/21 09:19:23;;;;;;;11.18;5.78;;;;;;;;;;4946430;28;20173;-82
2024/02/21 09:21:49;;;;;;;11.98;5.53;;;;;;;;;;4949127;28;20715;-82
2024/02/21 09:24:14;;;;;;;12.77;5.65;;;;;;;;;;4947725;28;20031;-81
2024/02/21 09:26:39;;;;;;;8.77;5.30;;;;;;;;;;4951902;28;20031;-81
2024/02/21 09:29:05;;;;;;;8.70;4.65;;;;;;;;;;4971666;28;20023;-81
2024/02/21 09:31:30;;;;;;;11.27;5.65;;;;;;;;;;4973883;28;20481;-82
2024/02/21 09:33:56;;;;;;;9.02;5.47;;;;;;;;;;4970641;28;20093;-81
2024/02/21 09:36:21;;;;;;;10.98;5.00;;;;;;;;;;4958717;28;20034;-81
2024/02/21 09:38:47;;;;;;;9.88;5.20;;;;;;;;;;4959431;28;20030;-82
2024/02/21 09:41:26;;;;;;;8.98;4.80;;;;;;;;;;4976380;28;20522;-82
2024/02/21 09:43:53;;;;;;;9.57;4.55;;;;;;;;;;4968283;28;20050;-81
2024/02/21 09:46:21;;;;;;;9.75;4.93;;;;;;;;;;4976232;28;20050;-82
2024/02/21 09:49:05;;;;;;;7.10;4.10;;;;;;;;;;4977986;28;20077;-82
2024/02/21 09:51:34;;;;;;;7.38;4.53;;;;;;;;;;4973562;28;20109;-82
2024/02/21 09:54:00;;;;;;;8.15;4.45;;;;;;;;;;4957769;28;20042;-82
2024/02/21 09:56:25;;;;;;;7.78;4.65;;;;;;;;;;4951838;28;20373;-81
2024/02/21 09:58:51;;;;;;;7.50;4.20;;;;;;;;;;4969699;28;20027;-82
2024/02/21 10:01:16;;;;;;;7.60;4.50;;;;;;;;;;4976713;28;20026;-82
2024/02/21 10:03:43;;;;;;;6.90;4.70;;;;;;;;;;4975266;28;20023;-82
2024/02/21 10:06:09;;;;;;;8.07;4.38;;;;;;;;;;4975329;28;20034;-82
2024/02/21 10:08:34;;;;;;;6.60;4.43;;;;;;;;;;4956548;28;20022;-82
2024/02/21 10:11:01;;;;;;;6.93;4.50;;;;;;;;;;4975380;28;20027;-82
2024/02/21 10:13:28;;;;;;;6.43;4.10;;;;;;;;;;4971300;28;20038;-81
2024/02/21 10:16:07;;;;;;;7.40;4.85;;;;;;;;;;4976740;28;20030;-82
2024/02/21 10:18:33;;;;;;;9.52;5.20;;;;;;;;;;4971877;28;20038;-81
2024/02/21 10:21:06;;;;;;;8.95;4.57;;;;;;;;;;4974008;28;20117;-81
2024/02/21 10:24:01;;;;;;;;;;;;;;;;;;4953963;28;20010;-81
2024/02/21 10:26:26;;;;;;;9.02;4.63;;;;;;;;;;4951859;28;19915;-81
2024/02/21 10:28:54;;;;;;;7.75;5.25;;;;;;;;;;4971810;28;20082;-81
2024/02/21 10:31:28;;;;;;;9.23;5.43;;;;;;;;;;4954991;28;20034;-81
2024/02/21 10:33:57;;;;;;;8.65;5.85;;;;;;;;;;4974166;28;20042;-83
2024/02/21 10:36:24;;;;;;;11.07;6.47;;;;;;;;;;4952725;28;20066;-82
2024/02/21 10:38:50;;;;;;;9.88;6.50;;;;;;;;;;4972955;28;20508;-82
2024/02/21 10:41:16;;;;;;;11.18;6.78;;;;;;;;;;4955280;28;20035;-81
2024/02/21 10:43:41;;;;;;;9.20;6.60;;;;;;;;;;4971288;28;20481;-82
2024/02/21 10:46:11;;;;;;;9.90;6.95;;;;;;;;;;4972535;28;20033;-81
2024/02/21 10:48:47;;;;;;;11.35;7.43;;;;;;;;;;4959604;28;20428;-81
2024/02/21 10:51:22;;;;;;;11.20;6.68;;;;;;;;;;4972205;28;20035;-82
2024/02/21 10:54:07;;;;;;;11.30;7.53;;;;;;;;;;4967924;28;20473;-81
2024/02/21 10:56:36;;;;;;;14.15;7.72;;;;;;;;;;4964873;28;20042;-81
2024/02/21 10:59:04;;;;;;;11.30;7.35;;;;;;;;;;4964424;28;20078;-82
2024/02/21 11:01:31;;;;;;;11.93;7.00;;;;;;;;;;4964491;28;20027;-81
2024/02/21 11:03:59;;;;;;;11.27;6.78;;;;;;;;;;4950428;28;20026;-81
2024/02/21 11:06:27;;;;;;;10.48;6.43;;;;;;;;;;4965193;28;20199;-82
2024/02/21 11:09:29;;;;;;;12.07;6.32;;;;;;;;;;4953303;28;20089;-82
2024/02/21 11:11:56;;;;;;;10.40;6.40;;;;;;;;;;4950702;28;20053;-82
2024/02/21 11:14:21;;;;;;;10.10;5.57;;;;;;;;;;4967942;28;20039;-81
2024/02/21 11:16:48;;;;;;;11.40;6.57;;;;;;;;;;4970559;28;20033;-81
2024/02/21 11:19:24;;;;;;;8.60;5.28;;;;;;;;;;4975776;28;20030;-81
2024/02/21 11:21:50;;;;;;;13.73;5.90;;;;;;;;;;4969203;28;20055;-81
2024/02/21 11:24:30;;;;;;;10.50;5.30;;;;;;;;;;4960216;28;20030;-81
2024/02/21 11:26:56;;;;;;;13.98;8.30;;;;;;;;;;4953230;28;20050;-81
2024/02/21 11:29:26;;;;;;;10.80;5.60;;;;;;;;;;4950896;28;20030;-81
2024/02/21 11:31:52;;;;;;;9.93;6.28;;;;;;;;;;4978695;28;20728;-79
2024/02/21 11:34:19;;;;;;;11.35;5.90;;;;;;;;;;4969839;28;20126;-79
2024/02/21 11:36:52;;;;;;;9.20;5.28;;;;;;;;;;4968288;28;20022;-79
2024/02/21 11:39:24;;;;;;;11.90;5.35;;;;;;;;;;4969444;28;20035;-78
2024/02/21 11:42:07;;;;;;;8.88;5.45;;;;;;;;;;4959200;28;20026;-79
2024/02/21 11:44:34;;;;;;;8.55;5.00;;;;;;;;;;4952118;28;20477;-79
2024/02/21 11:46:59;;;;;;;10.77;6.65;;;;;;;;;;4975948;28;20516;-78
2024/02/21 11:49:29;;;;;;;13.25;6.63;;;;;;;;;;4971244;28;20039;-78
2024/02/21 11:52:01;;;;;;;11.82;6.60;;;;;;;;;;4954638;28;20050;-79
2024/02/21 11:54:27;;;;;;;9.13;4.90;;;;;;;;;;4958171;28;20036;-78
2024/02/21 11:56:53;;;;;;;10.43;5.80;;;;;;;;;;4963966;28;20488;-79
2024/02/21 11:59:18;;;;;;;8.02;4.65;;;;;;;;;;4976727;28;20041;-78
2024/02/21 12:01:44;;;;;;;12.13;5.90;;;;;;;;;;4977911;28;20396;-79
2024/02/21 12:04:10;;;;;;;10.75;5.80;;;;;;;;;;4974800;28;20381;-78
2024/02/21 12:06:35;;;;;;;10.38;5.47;;;;;;;;;;4959918;28;20023;-78
2024/02/21 12:09:01;;;;;;;9.90;5.22;;;;;;;;;;4973273;28;20053;-79
2024/02/21 12:11:26;;;;;;;9.60;4.75;;;;;;;;;;4960132;28;20459;-78
2024/02/21 12:14:00;;;;;;;9.43;5.45;;;;;;;;;;4982175;28;20037;-78
2024/02/21 12:16:28;;;;;;;11.25;4.93;;;;;;;;;;4973144;28;20046;-78
2024/02/21 12:18:53;;;;;;;9.95;4.80;;;;;;;;;;4959030;28;20084;-78
2024/02/21 12:21:19;;;;;;;11.75;4.78;;;;;;;;;;4974199;28;20121;-78
2024/02/21 12:23:46;;;;;;;8.32;4.50;;;;;;;;;;4976148;28;20027;-79
2024/02/21 12:26:12;;;;;;;8.85;4.57;;;;;;;;;;4960434;28;20035;-78
2024/02/21 12:28:37;;;;;;;11.90;4.45;;;;;;;;;;4973625;28;20397;-79
2024/02/21 12:31:03;;;;;;;11.73;4.68;;;;;;;;;;4973169;28;20401;-79
2024/02/21 12:33:29;;;;;;;8.25;4.63;;;;;;;;;;4970416;28;20023;-79
2024/02/21 12:35:55;;;;;;;7.97;4.53;;;;;;;;;;4950103;28;20041;-78
2024/02/21 12:38:20;;;;;;;10.15;4.78;;;;;;;;;;4952250;28;20023;-78
2024/02/21 12:40:46;;;;;;;8.13;4.60;;;;;;;;;;4974062;28;20035;-78
2024/02/21 12:43:11;;;;;;;8.32;4.45;;;;;;;;;;4961966;28;20050;-81
2024/02/21 12:45:37;;;;;;;10.10;5.03;;;;;;;;;;4963022;28;20027;-81
2024/02/21 12:48:04;;;;;;;8.15;4.82;;;;;;;;;;4977850;28;20026;-81
2024/02/21 12:50:31;;;;;;;9.82;4.82;;;;;;;;;;4980212;28;20027;-81
2024/02/21 12:52:56;;;;;;;12.82;4.80;;;;;;;;;;4989659;28;20030;-82
2024/02/21 12:55:23;;;;;;;9.18;4.80;;;;;;;;;;4965022;28;20048;-82
2024/02/21 12:57:48;;;;;;;9.45;4.40;;;;;;;;;;4966048;28;20030;-81
2024/02/21 13:00:14;;;;;;;8.95;4.75;;;;;;;;;;4963925;28;20511;-81
2024/02/21 13:02:40;;;;;;;9.80;4.70;;;;;;;;;;4976414;28;20469;-81
2024/02/21 13:05:05;;;;;;;8.35;4.65;;;;;;;;;;4974682;28;20030;-82
2024/02/21 13:07:32;;;;;;;10.82;4.65;;;;;;;;;;4973280;28;20471;-82
2024/02/21 13:09:57;;;;;;;8.65;4.43;;;;;;;;;;4974775;28;20124;-82
2024/02/21 13:12:23;;;;;;;10.50;4.38;;;;;;;;;;4974540;28;20134;-81
2024/02/21 13:14:48;;;;;;;10.35;4.40;;;;;;;;;;4973997;28;20027;-81
2024/02/21 13:17:14;;;;;;;8.95;4.35;;;;;;;;;;4976685;28;20515;-82
2024/02/21 13:19:40;;;;;;;8.40;4.47;;;;;;;;;;4960121;28;20038;-82
2024/02/21 13:22:09;;;;;;;10.18;5.75;;;;;;;;;;4973809;28;20555;-82
2024/02/21 13:24:34;;;;;;;9.80;4.82;;;;;;;;;;4960034;28;20116;-81
2024/02/21 13:27:00;;;;;;;11.50;5.20;;;;;;;;;;4972189;28;20077;-81
2024/02/21 13:29:25;;;;;;;7.32;4.32;;;;;;;;;;4974277;28;20099;-81
2024/02/21 13:31:51;;;;;;;9.98;4.47;;;;;;;;;;4969884;28;20031;-81
2024/02/21 13:34:17;;;;;;;8.43;4.18;;;;;;;;;;4968382;28;20513;-81
2024/02/21 13:36:42;;;;;;;7.63;4.20;;;;;;;;;;4956271;28;20034;-81
2024/02/21 13:39:08;;;;;;;8.00;3.80;;;;;;;;;;4955949;28;20073;-81
2024/02/21 13:41:34;;;;;;;8.27;4.00;;;;;;;;;;4958890;28;20377;-81
2024/02/21 13:44:03;;;;;;;8.07;4.05;;;;;;;;;;4973344;28;20018;-81
2024/02/21 13:46:29;;;;;;;11.15;4.10;;;;;;;;;;4974511;28;20065;-81
2024/02/21 13:49:06;;;;;;;7.22;3.55;;;;;;;;;;4962276;28;20060;-82
2024/02/21 13:51:36;;;;;;;8.10;3.83;;;;;;;;;;4950723;28;20096;-81
2024/02/21 13:54:03;;;;;;;6.63;3.55;;;;;;;;;;4966332;28;20092;-82
2024/02/21 13:56:29;;;;;;;8.52;3.70;;;;;;;;;;4965602;28;20070;-81
2024/02/21 13:58:54;;;;;;;11.52;4.90;;;;;;;;;;4971059;28;20434;-82
2024/02/21 14:01:20;;;;;;;12.35;4.65;;;;;;;;;;4967885;28;20039;-82
2024/02/21 14:03:45;;;;;;;7.50;3.40;;;;;;;;;;4957197;28;20073;-81
2024/02/21 14:06:11;;;;;;;6.88;3.22;;;;;;;;;;4974137;28;20053;-81
2024/02/21 14:08:39;;;;;;;7.63;3.20;;;;;;;;;;4973689;28;20033;-82
2024/02/21 14:11:05;;;;;;;6.95;3.03;;;;;;;;;;4974711;28;20109;-82
2024/02/21 14:13:31;;;;;;;5.97;3.10;;;;;;;;;;4974187;28;20030;-81
2024/02/21 14:15:56;;;;;;;7.03;3.13;;;;;;;;;;4957042;28;20057;-81
2024/02/21 14:18:22;;;;;;;10.77;3.25;;;;;;;;;;4967588;28;20484;-81
2024/02/21 14:20:47;;;;;;;7.75;3.13;;;;;;;;;;4950842;28;20031;-80
2024/02/21 14:23:13;;;;;;;6.72;3.08;;;;;;;;;;4970101;28;20485;-81
2024/02/21 14:25:39;;;;;;;7.43;3.28;;;;;;;;;;4973284;28;20026;-81
2024/02/21 14:28:05;;;;;;;8.13;3.30;;;;;;;;;;4954579;28;20129;-81